Time;durP1;ratioP1;P1;durP2;ratioP2;P2;SDS_P1;SDS_P2;PMS_P1;PMS_P2;Temp;Humidity;BMP_temperature;BMP_pressure;BME280_temperature;BME280_humidity;BME280_pressure;Samples;Min_cycle;Max_cycle;Signal;HPM_P1;HPM_P2
2022/01/18 00:00:56;;;;;;;12.05;7.82;;;;;;;;;;5033202;28;20021;-70
2022/01/18 00:03:22;;;;;;;13.98;9.32;;;;;;;;;;5033338;28;20060;-70
2022/01/18 00:05:50;;;;;;;12.25;7.85;;;;;;;;;;5033573;28;20034;-70
2022/01/18 00:08:17;;;;;;;8.15;5.85;;;;;;;;;;5033142;28;20109;-70
2022/01/18 00:10:44;;;;;;;8.35;5.43;;;;;;;;;;5033253;28;20014;-70
2022/01/18 00:18:21;;;;;;;7.15;3.92;;;;;;;;;;5033352;28;20042;-70
2022/01/18 00:20:59;;;;;;;6.40;4.32;;;;;;;;;;5033107;28;20017;-70
2022/01/18 00:23:26;;;;;;;10.38;5.72;;;;;;;;;;5033006;28;20528;-70
2022/01/18 00:25:55;;;;;;;9.68;5.75;;;;;;;;;;5033202;28;20018;-70
2022/01/18 00:28:22;;;;;;;8.50;5.28;;;;;;;;;;5032943;28;20477;-70
2022/01/18 00:36:03;;;;;;;28.35;18.92;;;;;;;;;;5032753;28;20415;-70
2022/01/18 00:38:33;;;;;;;29.48;19.35;;;;;;;;;;5032843;28;20032;-70
2022/01/18 00:41:00;;;;;;;32.33;22.73;;;;;;;;;;5032980;28;20036;-70
2022/01/18 00:43:26;;;;;;;20.05;14.07;;;;;;;;;;5033245;28;20021;-70
2022/01/18 00:45:53;;;;;;;25.17;16.50;;;;;;;;;;5032877;28;20036;-70
2022/01/18 00:48:19;;;;;;;22.50;14.07;;;;;;;;;;5032725;28;20035;-70
2022/01/18 00:50:45;;;;;;;16.70;12.00;;;;;;;;;;5032755;28;20025;-71
2022/01/18 00:53:15;;;;;;;23.33;15.85;;;;;;;;;;5032757;28;20025;-70
2022/01/18 00:56:05;;;;;;;25.65;14.63;;;;;;;;;;5017595;28;20120;-70
2022/01/18 00:58:31;;;;;;;19.38;10.27;;;;;;;;;;5036592;28;20029;-70
2022/01/18 01:00:57;;;;;;;18.52;11.02;;;;;;;;;;5036946;28;20376;-70
2022/01/18 01:03:24;;;;;;;27.52;16.08;;;;;;;;;;5036932;28;20029;-70
2022/01/18 01:05:50;;;;;;;28.40;15.07;;;;;;;;;;5036670;28;20035;-70
2022/01/18 01:08:16;;;;;;;22.83;14.00;;;;;;;;;;5036598;28;20143;-70
2022/01/18 01:10:42;;;;;;;19.02;11.80;;;;;;;;;;5036650;28;20056;-70
2022/01/18 01:13:08;;;;;;;16.92;9.93;;;;;;;;;;5036482;28;20477;-70
2022/01/18 01:15:47;;;;;;;16.80;10.02;;;;;;;;;;5036431;28;20476;-70
2022/01/18 01:18:31;;;;;;;15.65;8.57;;;;;;;;;;5036382;28;20043;-70
2022/01/18 01:43:26;;;;;;;13.52;8.57;;;;;;;;;;4956014;29;20077;-70
2022/01/18 01:45:52;;;;;;;13.38;9.45;;;;;;;;;;4955919;29;20051;-70
2022/01/18 01:48:19;;;;;;;16.38;10.77;;;;;;;;;;4955638;29;20031;-70
2022/01/18 01:50:50;;;;;;;22.77;11.02;;;;;;;;;;4955475;29;20039;-71
2022/01/18 01:53:17;;;;;;;21.17;12.80;;;;;;;;;;4955417;29;20070;-70
2022/01/18 01:55:43;;;;;;;30.80;18.30;;;;;;;;;;4955627;29;20031;-70
2022/01/18 01:58:09;;;;;;;17.38;9.05;;;;;;;;;;4998350;28;20056;-71
2022/01/18 02:00:41;;;;;;;13.85;6.93;;;;;;;;;;5035893;28;20044;-70
2022/01/18 02:03:08;;;;;;;14.80;8.93;;;;;;;;;;5035741;28;20100;-70
2022/01/18 02:05:34;;;;;;;13.35;8.00;;;;;;;;;;5035535;28;20060;-70
2022/01/18 02:08:00;;;;;;;10.48;6.45;;;;;;;;;;5035333;28;20024;-69
2022/01/18 02:10:26;;;;;;;9.45;5.45;;;;;;;;;;5035702;28;20030;-69
2022/01/18 02:12:52;;;;;;;11.45;6.20;;;;;;;;;;5035400;28;20028;-69
2022/01/18 02:15:19;;;;;;;11.60;6.47;;;;;;;;;;5035332;28;20369;-69
2022/01/18 02:23:16;;;;;;;6.93;4.43;;;;;;;;;;5035267;28;20052;-70
2022/01/18 02:25:42;;;;;;;11.52;5.82;;;;;;;;;;5035259;28;20029;-70
2022/01/18 02:28:08;;;;;;;16.50;8.65;;;;;;;;;;5035108;28;20060;-70
2022/01/18 02:30:34;;;;;;;10.93;5.43;;;;;;;;;;5035060;28;20029;-70
2022/01/18 02:33:00;;;;;;;10.45;5.65;;;;;;;;;;5034781;28;20057;-69
2022/01/18 02:35:26;;;;;;;7.15;4.35;;;;;;;;;;5035029;28;20042;-69
2022/01/18 02:37:53;;;;;;;16.98;7.50;;;;;;;;;;5034997;28;20041;-70
2022/01/18 02:40:19;;;;;;;8.30;5.25;;;;;;;;;;5034874;28;20468;-71
2022/01/18 02:42:56;;;;;;;10.25;4.65;;;;;;;;;;5034998;28;20465;-69
2022/01/18 02:45:22;;;;;;;11.63;5.72;;;;;;;;;;5034800;28;20172;-70
2022/01/18 02:47:48;;;;;;;12.63;6.75;;;;;;;;;;5034706;28;20022;-70
2022/01/18 02:50:14;;;;;;;9.05;5.65;;;;;;;;;;5034676;28;20517;-70
2022/01/18 02:52:41;;;;;;;13.05;6.43;;;;;;;;;;5034744;28;20033;-70
2022/01/18 02:55:07;;;;;;;14.20;7.57;;;;;;;;;;5034925;28;20365;-71
2022/01/18 02:57:41;;;;;;;15.73;8.38;;;;;;;;;;5034471;28;20091;-70
2022/01/18 03:00:19;;;;;;;13.90;7.47;;;;;;;;;;5034604;28;20026;-69
2022/01/18 03:05:30;;;;;;;11.65;6.03;;;;;;;;;;5034626;28;20048;-70
2022/01/18 03:07:56;;;;;;;26.05;12.15;;;;;;;;;;5034570;28;20025;-70
2022/01/18 03:10:22;;;;;;;20.23;11.15;;;;;;;;;;5034377;28;20392;-70
2022/01/18 03:12:48;;;;;;;37.05;16.73;;;;;;;;;;5034238;28;20028;-70
2022/01/18 03:15:14;;;;;;;30.10;16.13;;;;;;;;;;5034568;28;20029;-70
2022/01/18 03:17:41;;;;;;;31.33;15.68;;;;;;;;;;5033215;28;20034;-70
2022/01/18 03:20:11;;;;;;;30.70;14.85;;;;;;;;;;5033998;28;20033;-70
2022/01/18 03:22:37;;;;;;;34.35;15.60;;;;;;;;;;5034039;28;20468;-71
2022/01/18 03:25:25;;;;;;;36.72;17.20;;;;;;;;;;5033993;28;20029;-70
2022/01/18 03:28:10;;;;;;;64.30;32.05;;;;;;;;;;5033698;28;20032;-70
2022/01/18 03:30:37;;;;;;;67.43;30.90;;;;;;;;;;5033438;28;20128;-70
2022/01/18 03:33:04;;;;;;;69.35;34.25;;;;;;;;;;5034146;28;20056;-69
2022/01/18 03:35:31;;;;;;;138.35;71.53;;;;;;;;;;5034156;28;20468;-70
2022/01/18 03:37:57;;;;;;;37.20;19.45;;;;;;;;;;5033676;28;20060;-70
2022/01/18 03:40:24;;;;;;;82.75;41.63;;;;;;;;;;5033616;28;20512;-70
2022/01/18 03:42:51;;;;;;;47.63;24.40;;;204.80;1561.60;;;;;;5033781;28;20029;-69
2022/01/18 03:45:30;;;;;;;91.72;46.05;;;180.10;1561.60;;;;;;5033633;28;20013;-70
2022/01/18 03:47:58;;;;;;;90.45;48.50;;;180.10;1587.20;;;;;;5033806;28;20072;-69
2022/01/18 03:50:26;;;;;;;128.15;61.72;;;204.80;1561.60;;;;;;5033951;28;20456;-69
2022/01/18 03:52:52;;;;;;;56.30;32.53;;;204.80;1561.60;;;;;;5033317;28;20064;-69
2022/01/18 03:55:20;;;;;;;29.50;20.58;;;204.80;1561.60;;;;;;5033589;28;20022;-70
2022/01/18 03:57:47;;;;;;;26.15;17.23;;;204.90;1561.60;;;;;;5033401;28;20037;-70
2022/01/18 04:00:17;;;;;;;25.23;17.80;;;180.10;1561.60;;;;;;5033528;28;20036;-70
2022/01/18 04:02:43;;;;;;;21.30;16.60;;;180.10;1561.60;;;;;;5033322;28;20116;-70
2022/01/18 04:05:09;;;;;;;17.63;10.70;;;;;;;;;;5015010;28;20034;-69
2022/01/18 04:07:35;;;;;;;15.55;10.60;;;;;;;;;;5033107;28;20025;-69
2022/01/18 04:10:01;;;;;;;12.88;7.93;;;;;;;;;;5033293;28;20036;-70
2022/01/18 04:12:27;;;;;;;14.02;9.32;;;;;;;;;;5033280;28;20092;-70
2022/01/18 04:14:54;;;;;;;10.40;8.13;;;;;;;;;;5033156;28;20029;-69
2022/01/18 04:28:22;;;;;;;14.85;8.13;;;;;;;;;;5033095;28;20036;-69
2022/01/18 04:30:48;;;;;;;14.43;8.07;;;;;;;;;;5032951;28;20022;-69
2022/01/18 04:33:15;;;;;;;13.15;7.82;;;;;;;;;;5033002;28;20065;-70
2022/01/18 04:35:41;;;;;;;17.73;11.10;;;;;;;;;;5033201;28;20049;-69
2022/01/18 04:38:07;;;;;;;16.88;9.70;;;;;;;;;;5032912;28;20170;-70
2022/01/18 04:40:34;;;;;;;17.00;11.32;;;;;;;;;;5032888;28;20029;-69
2022/01/18 04:43:08;;;;;;;20.77;12.18;;;;;;;;;;5032864;28;20036;-69
2022/01/18 04:48:35;;;;;;;18.73;11.43;;;;;;;;;;5033137;28;20395;-70
2022/01/18 04:51:09;;;;;;;28.58;16.70;;;;;;;;;;5032959;28;20018;-70
2022/01/18 04:53:40;;;;;;;33.08;19.38;;;;;;;;;;5032825;28;20030;-70
2022/01/18 04:56:09;;;;;;;29.83;16.10;;;;;;;;;;5032516;28;20028;-69
2022/01/18 04:58:36;;;;;;;24.05;11.25;;;;;;;;;;5032865;28;20037;-70
2022/01/18 05:01:03;;;;;;;21.67;13.80;;;;;;;;;;5032798;28;20032;-70
2022/01/18 05:03:29;;;;;;;24.02;17.20;;;;;;;;;;5032860;28;20029;-69
2022/01/18 05:05:59;;;;;;;30.33;21.60;;;;;;;;;;5032644;28;20026;-69
2022/01/18 05:08:25;;;;;;;41.38;27.77;;;;;;;;;;5032521;28;20026;-69
2022/01/18 05:10:58;;;;;;;42.60;25.70;;;;;;;;;;5032612;28;20105;-70
2022/01/18 05:13:49;;;;;;;34.67;24.70;;;;;;;;;;5032511;28;20040;-69
2022/01/18 05:22:55;;;;;;;50.83;32.20;;;;;;;;;;5032740;28;20575;-70
2022/01/18 05:24:30;;;;;;;45.67;25.92;;;179.70;1561.60;;;;;;5032123;28;20060;-70
2022/01/18 05:26:56;;;;;;;35.53;22.48;;;;;;;;;;5032361;28;20394;-70
2022/01/18 05:29:22;;;;;;;52.92;35.53;;;;;;;;;;5032330;28;20053;-70
2022/01/18 05:31:49;;;;;;;65.45;40.25;;;;;;;;;;5032294;28;20017;-69
2022/01/18 05:34:15;;;;;;;86.40;48.55;;;;;;;;;;5032590;28;20394;-69
2022/01/18 05:36:41;;;;;;;75.93;45.33;;;;;;;;;;5032408;28;20029;-70
2022/01/18 05:39:11;;;;;;;85.38;50.78;;;;;;;;;;5032248;28;20045;-70
2022/01/18 05:41:41;;;;;;;61.35;36.13;;;;;;;;;;5034468;28;20018;-70
2022/01/18 05:44:08;;;;;;;68.70;40.45;;;;;;;;;;5035824;28;20075;-69
2022/01/18 05:46:34;;;;;;;88.75;50.97;;;;;;;;;;5035927;28;20030;-70
2022/01/18 05:49:01;;;;;;;52.53;32.67;;;;;;;;;;5036126;28;20362;-70
2022/01/18 05:51:30;;;;;;;69.60;43.38;;;;;;;;;;5036026;28;20368;-70
2022/01/18 05:53:56;;;;;;;83.95;61.53;;;;;;;;;;5035822;28;20025;-70
2022/01/18 05:56:23;;;;;;;79.00;51.70;;;;;;;;;;5035737;28;20018;-70
2022/01/18 05:58:49;;;;;;;92.95;53.20;;;;;;;;;;5035480;28;20040;-70
2022/01/18 06:01:26;;;;;;;78.05;43.97;;;;;;;;;;5035603;28;20549;-70
2022/01/18 06:04:08;;;;;;;135.68;73.80;;;;;;;;;;5035438;28;20112;-70
2022/01/18 06:06:54;;;;;;;56.95;32.13;;;;;;;;;;5035803;28;20248;-70
2022/01/18 06:09:23;;;;;;;89.70;54.83;;;;;;;;;;5035293;28;20435;-69
2022/01/18 06:11:50;;;;;;;91.38;59.08;;;154.40;1638.40;;;;;;5035633;28;20029;-69
2022/01/18 06:14:16;;;;;;;70.25;49.97;;;154.30;1638.40;;;;;;5035386;28;20527;-70
2022/01/18 06:16:41;;;;;;;40.28;30.25;;;154.00;1664.00;;;;;;5035259;28;20041;-69
2022/01/18 06:19:07;;;;;;;29.90;18.80;;;153.80;1715.20;;;;;;5035138;28;20043;-70
2022/01/18 06:21:33;;;;;;;27.55;15.82;;;153.80;1689.60;;;;;;5035118;28;20030;-70
2022/01/18 06:23:59;;;;;;;42.17;24.70;;;154.20;1689.60;;;;;;5034870;28;20447;-70
2022/01/18 06:26:25;;;;;;;46.42;26.95;;;;;;;;;;5016710;28;20120;-70
2022/01/18 06:28:51;;;;;;;62.00;38.03;;;;;;;;;;5035020;28;20112;-69
2022/01/18 06:31:18;;;;;;;67.95;43.15;;;;;;;;;;5035158;28;20017;-69
2022/01/18 06:33:44;;;;;;;64.82;40.88;;;;;;;;;;5035039;28;20029;-70
2022/01/18 06:36:10;;;;;;;82.70;47.67;;;;;;;;;;5035009;28;20032;-71
2022/01/18 06:38:36;;;;;;;72.53;43.33;;;;;;;;;;5034924;28;20037;-70
2022/01/18 06:41:04;;;;;;;124.45;73.25;;;;;;;;;;5034751;28;20032;-69
2022/01/18 06:43:30;;;;;;;142.95;90.72;;;;;;;;;;5034817;28;20026;-70
2022/01/18 06:45:56;;;;;;;204.00;130.48;;;;;;;;;;5034984;28;20337;-70
2022/01/18 06:48:22;;;;;;;199.43;120.65;;;;;;;;;;5035017;28;20029;-70
2022/01/18 06:50:48;;;;;;;160.80;102.22;;;;;;;;;;5034816;28;20056;-70
2022/01/18 06:53:14;;;;;;;136.48;88.30;;;;;;;;;;5034414;28;20025;-70
2022/01/18 06:55:40;;;;;;;118.90;74.57;;;;;;;;;;5034508;28;20109;-70
2022/01/18 06:58:06;;;;;;;111.35;66.70;;;;;;;;;;5034564;28;20040;-70
2022/01/18 07:00:32;;;;;;;103.45;62.88;;;;;;;;;;5034592;28;20033;-70
2022/01/18 07:02:58;;;;;;;112.75;67.15;;;;;;;;;;5034569;28;20151;-70
2022/01/18 07:05:24;;;;;;;127.85;78.65;;;;;;;;;;5034459;28;20033;-71
2022/01/18 07:07:50;;;;;;;201.13;127.15;;;;;;;;;;5034289;28;20029;-70
2022/01/18 07:10:16;;;;;;;174.50;113.13;;;;;;;;;;5034224;28;20104;-70
2022/01/18 07:12:42;;;;;;;137.85;82.53;;;179.60;1689.60;;;;;;5034367;28;20380;-71
2022/01/18 07:15:08;;;;;;;35.42;24.10;;;179.50;1689.60;;;;;;5034208;28;20017;-71
2022/01/18 07:17:36;;;;;;;33.35;20.55;;;179.50;1664.00;;;;;;5034108;28;20033;-71
2022/01/18 07:20:04;;;;;;;30.42;17.33;;;179.40;1689.60;;;;;;5034454;28;20028;-71
2022/01/18 07:22:29;;;;;;;36.35;20.05;;;179.30;1689.60;;;;;;5033819;28;20041;-71
2022/01/18 07:24:58;;;;;;;31.02;18.77;;;179.60;1689.60;;;;;;5034126;28;20029;-70
2022/01/18 07:27:24;;;;;;;36.88;20.52;;;179.50;1689.60;;;;;;5034217;28;20092;-71
2022/01/18 07:29:50;;;;;;;32.60;19.58;;;;;;;;;;5033949;28;20025;-70
2022/01/18 07:32:15;;;;;;;41.53;24.95;;;179.80;1664.00;;;;;;5033837;28;20535;-71
2022/01/18 07:34:53;;;;;;;28.40;18.55;;;;;;;;;;5033789;28;20053;-71
2022/01/18 07:37:20;;;;;;;63.08;38.70;;;;;;;;;;5033604;28;20021;-71
2022/01/18 07:39:48;;;;;;;26.38;15.45;;;;;;;;;;5033482;28;20025;-71
2022/01/18 07:42:14;;;;;;;28.73;17.85;;;;;;;;;;5033764;28;20362;-70
2022/01/18 07:44:40;;;;;;;21.95;11.98;;;;;;;;;;5034006;28;20038;-70
2022/01/18 07:47:06;;;;;;;18.08;10.85;;;;;;;;;;5033566;28;20033;-70
2022/01/18 07:49:32;;;;;;;34.67;18.30;;;;;;;;;;5033872;28;20033;-70
2022/01/18 07:51:58;;;;;;;25.02;15.00;;;;;;;;;;5033453;28;20029;-71
2022/01/18 07:54:24;;;;;;;23.60;12.82;;;;;;;;;;5033297;28;20033;-70
2022/01/18 07:56:50;;;;;;;14.57;9.52;;;;;;;;;;5033377;28;20554;-70
2022/01/18 07:59:16;;;;;;;24.35;14.65;;;;;;;;;;5033225;28;20484;-70
2022/01/18 08:01:44;;;;;;;19.75;11.25;;;;;;;;;;5033691;28;20045;-71
2022/01/18 08:04:10;;;;;;;34.28;20.90;;;;;;;;;;5032840;28;20156;-69
2022/01/18 08:06:36;;;;;;;23.35;12.82;;;;;;;;;;5033356;28;20079;-71
2022/01/18 08:09:03;;;;;;;16.83;8.88;;;;;;;;;;5032851;28;20021;-70
2022/01/18 08:11:29;;;;;;;13.25;7.15;;;;;;;;;;5033090;28;20025;-70
2022/01/18 08:13:57;;;;;;;14.00;8.00;;;;;;;;;;5033141;28;20563;-71
2022/01/18 08:18:56;;;;;;;16.40;9.15;;;;;;;;;;5033305;28;20033;-70
2022/01/18 08:21:22;;;;;;;24.52;15.32;;;;;;;;;;5033091;28;20028;-72
2022/01/18 08:23:49;;;;;;;23.05;13.10;;;;;;;;;;5032521;28;20041;-70
2022/01/18 08:26:15;;;;;;;19.42;10.60;;;;;;;;;;5033022;28;20064;-70
2022/01/18 08:28:41;;;;;;;18.30;11.02;;;;;;;;;;5032956;28;20029;-71
2022/01/18 08:31:08;;;;;;;17.15;10.48;;;;;;;;;;5032837;28;20052;-71
2022/01/18 08:33:34;;;;;;;18.08;10.55;;;;;;;;;;5033112;28;20496;-70
2022/01/18 08:36:04;;;;;;;30.60;16.60;;;;;;;;;;5033414;28;20037;-70
2022/01/18 08:38:33;;;;;;;46.67;23.27;;;;;;;;;;5032548;28;20107;-70
2022/01/18 08:41:00;;;;;;;22.70;14.10;;;;;;;;;;5032924;28;20476;-70
2022/01/18 08:43:30;;;;;;;20.38;12.75;;;;;;;;;;5032690;28;20025;-70
2022/01/18 08:45:57;;;;;;;19.50;11.43;;;;;;;;;;5032805;28;20426;-70
2022/01/18 08:48:23;;;;;;;29.92;15.52;;;;;;;;;;5032696;28;20112;-71
2022/01/18 08:50:49;;;;;;;36.38;20.10;;;;;;;;;;5032812;28;20485;-71
2022/01/18 08:53:15;;;;;;;29.52;16.50;;;;;;;;;;5032534;28;20327;-70
2022/01/18 08:55:41;;;;;;;23.10;13.27;;;;;;;;;;5032578;28;20022;-71
2022/01/18 08:58:08;;;;;;;25.40;14.00;;;;;;;;;;5032749;28;20036;-70
2022/01/18 09:00:35;;;;;;;27.70;13.90;;;;;;;;;;5032503;28;20021;-70
2022/01/18 09:03:02;;;;;;;19.95;10.40;;;205.40;1510.40;;;;;;5032684;28;20025;-70
2022/01/18 09:05:28;;;;;;;22.38;11.00;;;;;;;;;;5032389;28;20041;-70
2022/01/18 09:07:55;;;;;;;23.88;13.75;;;;;;;;;;5032437;28;20026;-70
2022/01/18 09:10:25;;;;;;;23.52;13.23;;;;;;;;;;5032702;28;20049;-69
2022/01/18 09:12:51;;;;;;;38.22;23.60;;;;;;;;;;5032389;28;20025;-71
2022/01/18 09:15:17;;;;;;;57.33;36.22;;;;;;;;;;5032524;28;20025;-70
2022/01/18 09:17:43;;;;;;;24.05;17.70;;;282.50;1254.40;;;;;;5036280;28;20029;-70
2022/01/18 09:20:11;;;;;;;21.77;13.77;;;;;;;;;;5018578;28;20026;-70
2022/01/18 09:22:38;;;;;;;18.67;13.52;;;;;;;;;;5017672;28;20207;-70
2022/01/18 09:25:06;;;;;;;16.10;8.10;;;;;;;;;;5036530;28;20037;-71
2022/01/18 09:27:32;;;;;;;21.55;12.02;;;;;;;;;;5036253;28;20497;-70
2022/01/18 09:29:58;;;;;;;24.25;13.65;;;;;;;;;;5036140;28;20024;-71
2022/01/18 09:32:24;;;;;;;17.45;11.27;;;;;;;;;;5034530;28;20155;-71
2022/01/18 09:34:51;;;;;;;14.82;8.48;;;;;;;;;;5029485;28;20022;-72
2022/01/18 09:37:17;;;;;;;21.55;8.93;;;;;;;;;;5035753;28;20053;-71
2022/01/18 09:39:43;;;;;;;22.83;11.80;;;;;;;;;;5035896;28;20425;-71
2022/01/18 09:42:10;;;;;;;27.42;14.90;;;;;;;;;;5035682;28;20030;-72
2022/01/18 09:44:36;;;;;;;22.92;11.38;;;256.80;1177.60;;;;;;5036063;28;20017;-71
2022/01/18 09:47:04;;;;;;;27.55;14.68;;;256.70;1510.40;;;;;;5036149;28;20465;-71
2022/01/18 09:49:30;;;;;;;29.95;15.05;;;;;;;;;;5035780;28;20026;-70
2022/01/18 09:51:56;;;;;;;30.17;16.48;;;;;;;;;;5035691;28;20108;-70
2022/01/18 09:54:22;;;;;;;21.35;11.05;;;;;;;;;;5035620;28;20049;-70
2022/01/18 09:56:48;;;;;;;23.55;10.82;;;;;;;;;;5035922;28;20431;-70
2022/01/18 09:59:15;;;;;;;72.32;34.47;;;;;;;;;;5035693;28;20132;-70
2022/01/18 10:01:41;;;;;;;23.48;11.40;;;;;;;;;;5035587;28;20515;-70
2022/01/18 10:04:14;;;;;;;23.52;11.88;;;;;;;;;;5035999;28;20029;-70
2022/01/18 10:06:41;;;;;;;27.67;13.65;;;;;;;;;;5035275;28;20028;-71
2022/01/18 10:09:11;;;;;;;30.65;15.40;;;;;;;;;;5035393;28;20029;-72
2022/01/18 10:11:37;;;;;;;21.00;12.02;;;282.50;1126.40;;;;;;5035623;28;20069;-72
2022/01/18 10:14:03;;;;;;;23.05;13.07;;;;;;;;;;5035254;28;20473;-71
2022/01/18 10:16:29;;;;;;;28.70;11.45;;;;;;;;;;5035298;28;20033;-71
2022/01/18 10:19:02;;;;;;;24.17;11.60;;;256.90;1177.60;;;;;;5035072;28;20041;-70
2022/01/18 10:21:39;;;;;;;41.63;21.90;;;256.30;1203.20;;;;;;5035268;28;20029;-70
2022/01/18 10:24:22;;;;;;;42.58;20.45;;;281.70;1177.60;;;;;;5034839;28;20064;-70
2022/01/18 10:26:50;;;;;;;16.45;9.45;;;;;;;;;;5016867;28;20024;-71
2022/01/18 10:29:16;;;;;;;22.65;12.60;;;;;;;;;;5035417;28;20490;-70
2022/01/18 10:37:10;;;;;;;19.95;10.80;;;333.00;1075.20;;;;;;5034854;28;20064;-72
2022/01/18 10:39:47;;;;;;;28.48;13.63;;;307.60;1152.00;;;;;;5034677;28;20040;-72
2022/01/18 10:42:14;;;;;;;12.88;6.13;;;307.60;1100.80;;;;;;5034921;28;20060;-72
2022/01/18 10:44:40;;;;;;;23.58;9.10;;;307.30;1152.00;;;;;;5034726;28;20033;-72
2022/01/18 10:47:06;;;;;;;17.42;9.00;;;282.20;1152.00;;;;;;5034844;28;20028;-72
2022/01/18 10:49:43;;;;;;;37.35;13.27;;;;;;;;;;5034829;28;20380;-72
2022/01/18 10:52:13;;;;;;;23.58;9.88;;;;;;;;;;5034284;28;20072;-71
2022/01/18 10:54:44;;;;;;;18.60;10.15;;;;;;;;;;5034341;28;20159;-73
2022/01/18 10:57:12;;;;;;;39.47;19.97;;;333.70;998.40;;;;;;5034391;28;20108;-72
2022/01/18 10:59:38;;;;;;;41.17;19.67;;;;;;;;;;5034113;28;20511;-69
2022/01/18 11:02:13;;;;;;;18.92;8.10;;;410.10;896.00;;;;;;5034313;28;20026;-72
2022/01/18 11:04:48;;;;;;;28.92;16.17;;;409.60;896.00;;;;;;5034213;28;20030;-72
2022/01/18 11:07:16;;;;;;;24.63;10.10;;;410.10;896.00;;;;;;5034302;28;20024;-72
2022/01/18 11:09:42;;;;;;;20.13;9.23;;;435.90;819.20;;;;;;5033902;28;20021;-71
2022/01/18 11:12:09;;;;;;;15.27;8.88;;;;;;;;;;5034377;28;20155;-71
2022/01/18 11:14:38;;;;;;;18.88;10.75;;;486.40;793.60;;;;;;5034151;28;20503;-71
2022/01/18 11:17:05;;;;;;;66.15;49.47;;;;;;;;;;5034436;28;20030;-71
2022/01/18 11:19:35;;;;;;;37.63;27.73;;;436.10;819.20;;;;;;5033692;28;20033;-72
2022/01/18 11:22:10;;;;;;;20.83;11.80;;;435.80;819.20;;;;;;5034193;28;20100;-71
2022/01/18 11:24:42;;;;;;;32.20;16.48;;;;;;;;;;5015961;28;20386;-71
2022/01/18 11:27:11;;;;;;;22.02;11.02;;;;;;;;;;5034168;28;20021;-72
2022/01/18 11:29:38;;;;;;;32.30;14.43;;;;;;;;;;5033794;28;20429;-72
2022/01/18 11:32:04;;;;;;;21.58;12.60;;;;;;;;;;5033679;28;20388;-71
2022/01/18 11:34:39;;;;;;;24.15;12.38;;;410.30;844.80;;;;;;5033727;28;20021;-71
2022/01/18 11:37:10;;;;;;;33.55;22.33;;;;;;;;;;5033573;28;20087;-71
2022/01/18 11:39:36;;;;;;;25.73;14.73;;;;;;;;;;5032777;28;20084;-71
2022/01/18 11:42:06;;;;;;;21.52;12.05;;;;;;;;;;5034044;28;20030;-71
2022/01/18 11:44:32;;;;;;;25.42;9.75;;;;;;;;;;5033506;28;20117;-71
2022/01/18 11:46:58;;;;;;;21.95;11.35;;;;;;;;;;5033718;28;20022;-71
2022/01/18 11:49:24;;;;;;;18.67;10.13;;;;;;;;;;5033369;28;20205;-70
2022/01/18 11:52:05;;;;;;;26.73;13.02;;;;;;;;;;5033235;28;20022;-71
2022/01/18 11:57:23;;;;;;;22.85;12.60;;;435.20;844.80;;;;;;5033461;28;20022;-71
2022/01/18 11:59:51;;;;;;;40.80;13.27;;;435.80;819.20;;;;;;5033491;28;20469;-71
2022/01/18 12:02:43;;;;;;;31.55;20.48;;;435.90;819.20;;;;;;5033110;28;20028;-71
2022/01/18 12:05:19;;;;;;;32.13;17.23;;;;;;;;;;5033278;28;20033;-68
2022/01/18 12:07:47;;;;;;;31.70;16.38;;;;;;;;;;5033245;28;20033;-71
2022/01/18 12:10:22;;;;;;;40.33;20.25;;;;;;;;;;5033129;28;20029;-71
2022/01/18 12:12:49;;;;;;;25.50;14.93;;;;;;;;;;5033583;28;20444;-71
2022/01/18 12:15:18;;;;;;;34.75;18.08;;;;;;;;;;5032793;28;20034;-71
2022/01/18 12:17:48;;;;;;;33.65;18.88;;;;;;;;;;5033102;28;20061;-71
2022/01/18 12:20:49;;;;;;;25.88;12.13;;;;;;;;;;5032893;28;20484;-71
2022/01/18 12:23:34;;;;;;;27.75;13.32;;;;;;;;;;4961472;28;20074;-70
2022/01/18 12:34:30;;;;;;;26.30;10.45;;;;;;;;;;4971943;28;20039;-71
2022/01/18 12:36:56;;;;;;;29.42;17.30;;;;;;;;;;4971986;28;20061;-71
2022/01/18 12:39:22;;;;;;;28.80;16.23;;;;;;;;;;4971557;28;20034;-71
2022/01/18 12:41:53;;;;;;;22.90;11.82;;;;;;;;;;4972023;28;20034;-71
2022/01/18 12:44:20;;;;;;;37.20;19.15;;;;;;;;;;4971831;28;20485;-72
2022/01/18 12:46:53;;;;;;;21.85;10.43;;;;;;;;;;4971837;28;20049;-71
2022/01/18 12:49:20;;;;;;;22.85;12.25;;;;;;;;;;4972275;28;20034;-72
2022/01/18 12:51:46;;;;;;;26.60;11.98;;;;;;;;;;4978200;28;20034;-73
2022/01/18 12:54:12;;;;;;;22.92;11.05;;;;;;;;;;4978262;28;20035;-71
2022/01/18 12:56:38;;;;;;;18.60;11.25;;;;;;;;;;4993870;28;20118;-70
2022/01/18 12:59:05;;;;;;;23.92;8.90;;;;;;;;;;5039087;28;20112;-69
2022/01/18 13:01:33;;;;;;;25.33;12.23;;;;;;;;;;5039126;28;20018;-69
2022/01/18 13:03:59;;;;;;;26.10;11.65;;;;;;;;;;5039294;28;20091;-70
2022/01/18 13:06:30;;;;;;;23.13;10.90;;;384.50;896.00;;;;;;5038929;28;20112;-70
2022/01/18 13:08:57;;;;;;;22.45;9.32;;;;;;;;;;5038991;28;20067;-70
2022/01/18 13:11:36;;;;;;;14.70;8.77;;;359.30;921.60;;;;;;5039082;28;20026;-70
2022/01/18 13:14:13;;;;;;;29.80;11.95;;;359.10;972.80;;;;;;5039131;28;20053;-70
2022/01/18 13:27:18;;;;;;;17.13;7.28;;;;;;;;;;5039136;28;20046;-69
2022/01/18 13:29:47;;;;;;;21.42;10.32;;;;;;;;;;5038849;28;20064;-69
2022/01/18 13:32:19;;;;;;;35.20;12.07;;;;;;;;;;5038742;28;20734;-70
2022/01/18 13:34:47;;;;;;;27.48;12.20;;;;;;;;;;5038599;28;20515;-69
2022/01/18 13:37:15;;;;;;;30.30;15.77;;;;;;;;;;5038964;28;20029;-69
2022/01/18 13:39:52;;;;;;;24.48;13.38;;;;;;;;;;5038761;28;20037;-70
2022/01/18 13:42:19;;;;;;;21.20;10.07;;;;;;;;;;5038737;28;20109;-69
2022/01/18 13:45:04;;;;;;;27.40;11.90;;;;;;;;;;5038831;28;20076;-69
2022/01/18 13:47:37;;;;;;;30.77;16.70;;;;;;;;;;5038740;28;20041;-70
2022/01/18 13:50:03;;;;;;;52.33;29.75;;;;;;;;;;5038733;28;20022;-70
2022/01/18 13:52:31;;;;;;;18.45;9.60;;;333.70;1075.20;;;;;;5038465;28;20052;-70
2022/01/18 13:54:58;;;;;;;17.70;10.07;;;;;;;;;;5038616;28;20100;-70
2022/01/18 13:57:24;;;;;;;22.50;13.05;;;;;;;;;;5038622;28;20473;-69
2022/01/18 13:59:50;;;;;;;29.25;13.65;;;;;;;;;;5038510;28;20104;-70
2022/01/18 14:02:18;;;;;;;26.80;14.02;;;;;;;;;;5035485;28;20068;-70
2022/01/18 14:04:45;;;;;;;28.75;15.43;;;;;;;;;;5035450;28;20056;-69
2022/01/18 14:07:11;;;;;;;45.58;20.58;;;;;;;;;;5035398;28;20108;-70
2022/01/18 14:09:38;;;;;;;29.65;13.98;;;;;;;;;;5035423;28;20029;-70
2022/01/18 14:12:05;;;;;;;32.75;14.40;;;;;;;;;;5035399;28;20078;-70
2022/01/18 14:14:35;;;;;;;25.42;10.48;;;333.20;1049.60;;;;;;5035326;28;20018;-70
2022/01/18 14:17:22;;;;;;;35.15;19.27;;;333.10;1075.20;;;;;;5035327;28;20029;-70
2022/01/18 14:19:51;;;;;;;20.52;11.52;;;;;;;;;;5034797;28;20046;-70
2022/01/18 14:22:26;;;;;;;39.97;21.30;;;;;;;;;;5035206;28;20461;-69
2022/01/18 14:24:57;;;;;;;23.00;9.68;;;;;;;;;;5034861;28;20112;-70
2022/01/18 14:27:25;;;;;;;28.42;13.23;;;;;;;;;;5035177;28;20041;-69
2022/01/18 14:29:55;;;;;;;23.38;13.57;;;;;;;;;;5035227;28;20025;-69
2022/01/18 14:32:26;;;;;;;26.00;13.23;;;;;;;;;;5035069;28;20025;-69
2022/01/18 14:34:53;;;;;;;49.30;22.63;;;;;;;;;;5035186;28;20029;-70
2022/01/18 14:37:19;;;;;;;31.73;17.17;;;;;;;;;;5034917;28;20060;-70
2022/01/18 14:40:02;;;;;;;32.35;15.95;;;;;;;;;;5034769;28;20099;-69
2022/01/18 14:42:41;;;;;;;49.33;20.73;;;;;;;;;;5034960;28;20045;-70
2022/01/18 14:47:40;;;;;;;38.28;17.55;;;;;;;;;;5034761;28;20037;-69
2022/01/18 14:50:15;;;;;;;44.58;26.92;;;307.60;1126.40;;;;;;5034761;28;20026;-69
2022/01/18 14:52:41;;;;;;;43.53;26.77;;;307.50;1126.40;;;;;;5034794;28;20025;-70
2022/01/18 14:55:08;;;;;;;44.80;20.45;;;;;;;;;;5034704;28;20025;-69
2022/01/18 14:57:34;;;;;;;52.30;24.80;;;;;;;;;;5034353;28;20026;-69
2022/01/18 15:00:02;;;;;;;47.10;24.70;;;;;;;;;;5034537;28;20079;-69
2022/01/18 15:02:30;;;;;;;36.47;18.80;;;;;;;;;;5034293;28;20063;-69
2022/01/18 15:04:56;;;;;;;50.58;26.83;;;;;;;;;;5034374;28;20108;-70
2022/01/18 15:07:22;;;;;;;64.40;33.80;;;;;;;;;;5034265;28;20125;-70
2022/01/18 15:09:49;;;;;;;52.67;26.10;;;;;;;;;;5034303;28;20024;-70
2022/01/18 15:12:15;;;;;;;50.08;25.52;;;;;;;;;;5034185;28;20044;-70
2022/01/18 15:14:41;;;;;;;97.93;58.00;;;;;;;;;;5033529;28;20544;-69
2022/01/18 15:17:07;;;;;;;54.72;30.95;;;;;;;;;;5033981;28;20022;-69
2022/01/18 15:19:36;;;;;;;83.85;49.05;;;;;;;;;;5033997;28;20388;-70
2022/01/18 15:22:03;;;;;;;78.82;45.60;;;;;;;;;;5034064;28;20014;-70
2022/01/18 15:24:29;;;;;;;81.90;44.25;;;;;;;;;;5033646;28;20056;-69
2022/01/18 15:26:59;;;;;;;93.05;50.50;;;;;;;;;;5034003;28;20116;-69
2022/01/18 15:29:26;;;;;;;91.82;52.95;;;;;;;;;;5033880;28;20041;-70
2022/01/18 15:31:52;;;;;;;87.43;58.47;;;;;;;;;;5033718;28;20036;-69